sensor_id;sensor_type;location;lat;lon;timestamp;P1;durP1;ratioP1;P2;durP2;ratioP2
830;SDS011;397;50.564;7.272;2023-04-07T00:01:03;13.23;;;11.83;;
830;SDS011;397;50.564;7.272;2023-04-07T00:03:31;13.17;;;11.87;;
830;SDS011;397;50.564;7.272;2023-04-07T00:05:58;14.80;;;13.20;;
830;SDS011;397;50.564;7.272;2023-04-07T00:08:26;11.10;;;10.10;;
830;SDS011;397;50.564;7.272;2023-04-07T00:10:53;12.47;;;11.27;;
830;SDS011;397;50.564;7.272;2023-04-07T00:13:22;11.27;;;10.07;;
830;SDS011;397;50.564;7.272;2023-04-07T00:15:49;12.83;;;11.60;;
830;SDS011;397;50.564;7.272;2023-04-07T00:18:17;13.87;;;12.20;;
830;SDS011;397;50.564;7.272;2023-04-07T00:20:44;14.53;;;12.50;;
830;SDS011;397;50.564;7.272;2023-04-07T00:23:12;13.43;;;12.13;;
830;SDS011;397;50.564;7.272;2023-04-07T00:25:40;17.93;;;13.30;;
830;SDS011;397;50.564;7.272;2023-04-07T00:28:07;12.60;;;11.20;;
830;SDS011;397;50.564;7.272;2023-04-07T00:30:35;13.40;;;11.50;;
830;SDS011;397;50.564;7.272;2023-04-07T00:33:02;12.13;;;11.00;;
830;SDS011;397;50.564;7.272;2023-04-07T00:35:30;12.50;;;11.30;;
830;SDS011;397;50.564;7.272;2023-04-07T00:37:57;15.77;;;11.50;;
830;SDS011;397;50.564;7.272;2023-04-07T00:40:25;13.43;;;12.03;;
830;SDS011;397;50.564;7.272;2023-04-07T00:42:52;13.07;;;11.77;;
830;SDS011;397;50.564;7.272;2023-04-07T00:45:20;15.10;;;13.50;;
830;SDS011;397;50.564;7.272;2023-04-07T00:47:47;12.57;;;11.33;;
830;SDS011;397;50.564;7.272;2023-04-07T00:50:15;14.73;;;11.87;;
830;SDS011;397;50.564;7.272;2023-04-07T00:52:44;14.50;;;12.70;;
830;SDS011;397;50.564;7.272;2023-04-07T00:55:12;14.47;;;12.97;;
830;SDS011;397;50.564;7.272;2023-04-07T00:57:39;14.77;;;12.77;;
830;SDS011;397;50.564;7.272;2023-04-07T01:00:07;14.13;;;12.00;;
830;SDS011;397;50.564;7.272;2023-04-07T01:02:47;14.90;;;13.30;;
830;SDS011;397;50.564;7.272;2023-04-07T01:07:59;13.87;;;12.50;;
830;SDS011;397;50.564;7.272;2023-04-07T01:11:01;13.93;;;12.53;;
830;SDS011;397;50.564;7.272;2023-04-07T01:13:35;13.57;;;11.77;;
830;SDS011;397;50.564;7.272;2023-04-07T01:16:08;14.33;;;12.83;;
830;SDS011;397;50.564;7.272;2023-04-07T01:18:37;15.60;;;13.67;;
830;SDS011;397;50.564;7.272;2023-04-07T01:21:06;13.80;;;12.30;;
830;SDS011;397;50.564;7.272;2023-04-07T01:23:58;15.10;;;13.53;;
830;SDS011;397;50.564;7.272;2023-04-07T01:26:25;14.43;;;12.93;;
830;SDS011;397;50.564;7.272;2023-04-07T01:32:01;17.00;;;13.07;;
830;SDS011;397;50.564;7.272;2023-04-07T01:34:32;16.90;;;14.13;;
830;SDS011;397;50.564;7.272;2023-04-07T01:37:02;17.03;;;15.30;;
830;SDS011;397;50.564;7.272;2023-04-07T01:39:32;14.73;;;12.63;;
830;SDS011;397;50.564;7.272;2023-04-07T01:42:01;14.70;;;13.40;;
830;SDS011;397;50.564;7.272;2023-04-07T01:44:31;14.93;;;13.43;;
830;SDS011;397;50.564;7.272;2023-04-07T01:47:00;15.40;;;13.83;;
830;SDS011;397;50.564;7.272;2023-04-07T01:49:29;15.23;;;13.63;;
830;SDS011;397;50.564;7.272;2023-04-07T01:51:57;14.60;;;13.10;;
830;SDS011;397;50.564;7.272;2023-04-07T01:54:25;14.60;;;13.10;;
830;SDS011;397;50.564;7.272;2023-04-07T01:56:54;16.13;;;14.40;;
830;SDS011;397;50.564;7.272;2023-04-07T01:59:21;17.20;;;15.43;;
830;SDS011;397;50.564;7.272;2023-04-07T02:01:49;13.60;;;12.23;;
830;SDS011;397;50.564;7.272;2023-04-07T02:04:21;15.90;;;14.30;;
830;SDS011;397;50.564;7.272;2023-04-07T02:07:00;18.93;;;16.93;;
830;SDS011;397;50.564;7.272;2023-04-07T02:09:30;19.23;;;17.07;;
830;SDS011;397;50.564;7.272;2023-04-07T02:11:59;18.57;;;16.60;;
830;SDS011;397;50.564;7.272;2023-04-07T02:14:28;18.60;;;16.07;;
830;SDS011;397;50.564;7.272;2023-04-07T02:16:56;19.90;;;17.80;;
830;SDS011;397;50.564;7.272;2023-04-07T02:19:26;19.00;;;17.10;;
830;SDS011;397;50.564;7.272;2023-04-07T02:21:55;17.93;;;16.23;;
830;SDS011;397;50.564;7.272;2023-04-07T02:24:23;22.07;;;16.90;;
830;SDS011;397;50.564;7.272;2023-04-07T02:26:51;18.37;;;16.47;;
830;SDS011;397;50.564;7.272;2023-04-07T02:29:18;18.80;;;16.23;;
830;SDS011;397;50.564;7.272;2023-04-07T02:31:46;19.03;;;16.20;;
830;SDS011;397;50.564;7.272;2023-04-07T02:34:14;16.23;;;14.50;;
830;SDS011;397;50.564;7.272;2023-04-07T02:36:41;18.57;;;16.63;;
830;SDS011;397;50.564;7.272;2023-04-07T02:39:09;22.53;;;18.37;;
830;SDS011;397;50.564;7.272;2023-04-07T02:41:36;20.03;;;16.73;;
830;SDS011;397;50.564;7.272;2023-04-07T02:44:04;16.53;;;14.83;;
830;SDS011;397;50.564;7.272;2023-04-07T02:46:31;19.27;;;17.27;;
830;SDS011;397;50.564;7.272;2023-04-07T02:48:59;18.07;;;16.17;;
830;SDS011;397;50.564;7.272;2023-04-07T02:51:26;20.60;;;17.80;;
830;SDS011;397;50.564;7.272;2023-04-07T02:53:53;20.20;;;16.83;;
830;SDS011;397;50.564;7.272;2023-04-07T02:56:21;18.83;;;16.90;;
830;SDS011;397;50.564;7.272;2023-04-07T02:58:48;19.00;;;17.00;;
830;SDS011;397;50.564;7.272;2023-04-07T03:01:16;19.73;;;17.50;;
830;SDS011;397;50.564;7.272;2023-04-07T03:03:43;19.10;;;17.20;;
830;SDS011;397;50.564;7.272;2023-04-07T03:06:12;21.17;;;19.10;;
830;SDS011;397;50.564;7.272;2023-04-07T03:08:40;20.33;;;17.53;;
830;SDS011;397;50.564;7.272;2023-04-07T03:11:07;19.13;;;17.07;;
830;SDS011;397;50.564;7.272;2023-04-07T03:13:35;19.40;;;17.53;;
830;SDS011;397;50.564;7.272;2023-04-07T03:16:03;21.57;;;19.37;;
830;SDS011;397;50.564;7.272;2023-04-07T03:18:30;20.87;;;18.73;;
830;SDS011;397;50.564;7.272;2023-04-07T03:20:58;21.10;;;18.07;;
830;SDS011;397;50.564;7.272;2023-04-07T03:23:25;22.13;;;19.80;;
830;SDS011;397;50.564;7.272;2023-04-07T03:25:54;22.07;;;19.27;;
830;SDS011;397;50.564;7.272;2023-04-07T03:28:22;21.33;;;18.87;;
830;SDS011;397;50.564;7.272;2023-04-07T03:30:50;21.47;;;19.27;;
830;SDS011;397;50.564;7.272;2023-04-07T03:33:18;19.83;;;17.73;;
830;SDS011;397;50.564;7.272;2023-04-07T03:35:45;22.20;;;19.90;;
830;SDS011;397;50.564;7.272;2023-04-07T03:38:13;21.40;;;19.17;;
830;SDS011;397;50.564;7.272;2023-04-07T03:40:40;21.67;;;19.47;;
830;SDS011;397;50.564;7.272;2023-04-07T03:43:08;22.93;;;17.93;;
830;SDS011;397;50.564;7.272;2023-04-07T03:45:37;18.80;;;16.90;;
830;SDS011;397;50.564;7.272;2023-04-07T03:48:05;18.90;;;17.00;;
830;SDS011;397;50.564;7.272;2023-04-07T03:50:34;21.80;;;19.33;;
830;SDS011;397;50.564;7.272;2023-04-07T03:53:02;19.37;;;17.07;;
830;SDS011;397;50.564;7.272;2023-04-07T03:55:30;22.20;;;18.07;;
830;SDS011;397;50.564;7.272;2023-04-07T03:57:58;17.97;;;16.17;;
830;SDS011;397;50.564;7.272;2023-04-07T04:00:26;21.00;;;18.40;;
830;SDS011;397;50.564;7.272;2023-04-07T04:02:55;20.53;;;18.30;;
830;SDS011;397;50.564;7.272;2023-04-07T04:05:23;21.57;;;19.27;;
830;SDS011;397;50.564;7.272;2023-04-07T04:07:50;21.37;;;19.17;;
830;SDS011;397;50.564;7.272;2023-04-07T04:10:18;20.57;;;18.50;;
830;SDS011;397;50.564;7.272;2023-04-07T04:12:46;20.40;;;18.00;;
830;SDS011;397;50.564;7.272;2023-04-07T04:15:15;19.40;;;17.40;;
830;SDS011;397;50.564;7.272;2023-04-07T04:17:42;21.87;;;17.67;;
830;SDS011;397;50.564;7.272;2023-04-07T04:20:10;18.73;;;16.77;;
830;SDS011;397;50.564;7.272;2023-04-07T04:22:38;27.30;;;17.97;;
830;SDS011;397;50.564;7.272;2023-04-07T04:25:05;19.70;;;16.87;;
830;SDS011;397;50.564;7.272;2023-04-07T04:27:33;21.03;;;18.93;;
830;SDS011;397;50.564;7.272;2023-04-07T04:30:01;21.80;;;18.17;;
830;SDS011;397;50.564;7.272;2023-04-07T04:32:29;20.37;;;18.17;;
830;SDS011;397;50.564;7.272;2023-04-07T04:34:57;21.90;;;19.50;;
830;SDS011;397;50.564;7.272;2023-04-07T04:37:25;20.03;;;17.67;;
830;SDS011;397;50.564;7.272;2023-04-07T04:39:53;20.97;;;18.67;;
830;SDS011;397;50.564;7.272;2023-04-07T04:42:20;21.93;;;18.50;;
830;SDS011;397;50.564;7.272;2023-04-07T04:44:48;19.43;;;17.33;;
830;SDS011;397;50.564;7.272;2023-04-07T04:47:16;21.27;;;19.00;;
830;SDS011;397;50.564;7.272;2023-04-07T04:49:44;25.73;;;21.10;;
830;SDS011;397;50.564;7.272;2023-04-07T04:52:11;29.13;;;21.23;;
830;SDS011;397;50.564;7.272;2023-04-07T04:54:39;22.77;;;20.33;;
830;SDS011;397;50.564;7.272;2023-04-07T04:57:06;22.93;;;19.53;;
830;SDS011;397;50.564;7.272;2023-04-07T04:59:34;22.33;;;19.43;;
830;SDS011;397;50.564;7.272;2023-04-07T05:02:01;24.23;;;20.00;;
830;SDS011;397;50.564;7.272;2023-04-07T05:04:29;24.70;;;22.00;;
830;SDS011;397;50.564;7.272;2023-04-07T05:06:56;27.17;;;22.33;;
830;SDS011;397;50.564;7.272;2023-04-07T05:09:24;26.90;;;22.13;;
830;SDS011;397;50.564;7.272;2023-04-07T05:11:52;25.73;;;20.00;;
830;SDS011;397;50.564;7.272;2023-04-07T05:14:19;24.40;;;21.17;;
830;SDS011;397;50.564;7.272;2023-04-07T05:16:47;30.53;;;23.03;;
830;SDS011;397;50.564;7.272;2023-04-07T05:19:14;27.20;;;23.07;;
830;SDS011;397;50.564;7.272;2023-04-07T05:21:42;26.90;;;22.17;;
830;SDS011;397;50.564;7.272;2023-04-07T05:24:09;26.43;;;21.67;;
830;SDS011;397;50.564;7.272;2023-04-07T05:26:37;30.80;;;25.67;;
830;SDS011;397;50.564;7.272;2023-04-07T05:29:05;25.23;;;21.77;;
830;SDS011;397;50.564;7.272;2023-04-07T05:31:32;26.50;;;23.30;;
830;SDS011;397;50.564;7.272;2023-04-07T05:34:02;24.60;;;21.33;;
830;SDS011;397;50.564;7.272;2023-04-07T05:36:29;28.40;;;22.63;;
830;SDS011;397;50.564;7.272;2023-04-07T05:38:57;32.73;;;23.40;;
830;SDS011;397;50.564;7.272;2023-04-07T05:41:24;31.27;;;22.67;;
830;SDS011;397;50.564;7.272;2023-04-07T05:43:52;26.93;;;24.03;;
830;SDS011;397;50.564;7.272;2023-04-07T05:46:19;29.40;;;24.30;;
830;SDS011;397;50.564;7.272;2023-04-07T05:48:46;26.50;;;22.17;;
830;SDS011;397;50.564;7.272;2023-04-07T05:51:14;26.30;;;23.07;;
830;SDS011;397;50.564;7.272;2023-04-07T05:53:41;25.90;;;21.93;;
830;SDS011;397;50.564;7.272;2023-04-07T05:56:09;29.17;;;25.47;;
830;SDS011;397;50.564;7.272;2023-04-07T05:58:36;31.23;;;24.30;;
830;SDS011;397;50.564;7.272;2023-04-07T06:01:04;30.70;;;25.97;;
830;SDS011;397;50.564;7.272;2023-04-07T06:03:32;30.17;;;23.97;;
830;SDS011;397;50.564;7.272;2023-04-07T06:05:59;33.40;;;25.13;;
830;SDS011;397;50.564;7.272;2023-04-07T06:08:27;30.03;;;24.10;;
830;SDS011;397;50.564;7.272;2023-04-07T06:10:54;28.47;;;23.87;;
830;SDS011;397;50.564;7.272;2023-04-07T06:13:21;32.97;;;25.93;;
830;SDS011;397;50.564;7.272;2023-04-07T06:15:49;28.70;;;24.67;;
830;SDS011;397;50.564;7.272;2023-04-07T06:18:16;29.70;;;24.37;;
830;SDS011;397;50.564;7.272;2023-04-07T06:20:44;30.60;;;26.07;;
830;SDS011;397;50.564;7.272;2023-04-07T06:23:12;29.43;;;24.33;;
830;SDS011;397;50.564;7.272;2023-04-07T06:25:39;38.43;;;27.50;;
830;SDS011;397;50.564;7.272;2023-04-07T06:28:07;30.63;;;24.90;;
830;SDS011;397;50.564;7.272;2023-04-07T06:30:34;34.93;;;27.17;;
830;SDS011;397;50.564;7.272;2023-04-07T06:33:02;31.53;;;26.00;;
830;SDS011;397;50.564;7.272;2023-04-07T06:35:29;31.90;;;24.10;;
830;SDS011;397;50.564;7.272;2023-04-07T06:37:57;32.77;;;25.00;;
830;SDS011;397;50.564;7.272;2023-04-07T06:40:24;29.47;;;24.17;;
830;SDS011;397;50.564;7.272;2023-04-07T06:42:52;33.27;;;24.07;;
830;SDS011;397;50.564;7.272;2023-04-07T06:45:19;29.47;;;23.97;;
830;SDS011;397;50.564;7.272;2023-04-07T06:47:47;30.63;;;24.10;;
830;SDS011;397;50.564;7.272;2023-04-07T06:50:14;33.50;;;25.50;;
830;SDS011;397;50.564;7.272;2023-04-07T06:52:43;31.33;;;25.87;;
830;SDS011;397;50.564;7.272;2023-04-07T06:55:11;29.13;;;23.17;;
830;SDS011;397;50.564;7.272;2023-04-07T06:57:38;31.77;;;25.77;;
830;SDS011;397;50.564;7.272;2023-04-07T07:00:08;30.90;;;22.77;;
830;SDS011;397;50.564;7.272;2023-04-07T07:02:35;28.83;;;24.03;;
830;SDS011;397;50.564;7.272;2023-04-07T07:05:03;42.00;;;26.00;;
830;SDS011;397;50.564;7.272;2023-04-07T07:07:31;32.90;;;24.13;;
830;SDS011;397;50.564;7.272;2023-04-07T07:09:59;28.00;;;22.77;;
830;SDS011;397;50.564;7.272;2023-04-07T07:12:26;30.27;;;22.90;;
830;SDS011;397;50.564;7.272;2023-04-07T07:14:54;31.57;;;24.60;;
830;SDS011;397;50.564;7.272;2023-04-07T07:17:21;26.80;;;23.50;;
830;SDS011;397;50.564;7.272;2023-04-07T07:19:49;27.10;;;21.87;;
830;SDS011;397;50.564;7.272;2023-04-07T07:22:16;29.13;;;23.90;;
830;SDS011;397;50.564;7.272;2023-04-07T07:24:44;29.40;;;23.70;;
830;SDS011;397;50.564;7.272;2023-04-07T07:27:11;26.57;;;21.90;;
830;SDS011;397;50.564;7.272;2023-04-07T07:29:39;29.33;;;24.30;;
830;SDS011;397;50.564;7.272;2023-04-07T07:32:06;28.80;;;23.20;;
830;SDS011;397;50.564;7.272;2023-04-07T07:34:34;27.97;;;22.20;;
830;SDS011;397;50.564;7.272;2023-04-07T07:37:01;30.40;;;21.50;;
830;SDS011;397;50.564;7.272;2023-04-07T07:39:29;28.70;;;21.30;;
830;SDS011;397;50.564;7.272;2023-04-07T07:41:56;24.83;;;20.63;;
830;SDS011;397;50.564;7.272;2023-04-07T07:44:24;26.13;;;21.87;;
830;SDS011;397;50.564;7.272;2023-04-07T07:46:51;25.13;;;21.80;;
830;SDS011;397;50.564;7.272;2023-04-07T07:49:19;26.47;;;21.30;;
830;SDS011;397;50.564;7.272;2023-04-07T07:51:46;23.60;;;21.10;;
830;SDS011;397;50.564;7.272;2023-04-07T07:54:14;25.43;;;20.10;;
830;SDS011;397;50.564;7.272;2023-04-07T07:56:41;22.57;;;19.30;;
830;SDS011;397;50.564;7.272;2023-04-07T07:59:09;25.20;;;21.70;;
830;SDS011;397;50.564;7.272;2023-04-07T08:01:36;23.77;;;19.93;;
830;SDS011;397;50.564;7.272;2023-04-07T08:04:04;22.13;;;19.67;;
830;SDS011;397;50.564;7.272;2023-04-07T08:06:31;28.70;;;21.93;;
830;SDS011;397;50.564;7.272;2023-04-07T08:08:59;26.57;;;20.07;;
830;SDS011;397;50.564;7.272;2023-04-07T08:11:26;24.73;;;19.63;;
830;SDS011;397;50.564;7.272;2023-04-07T08:13:54;24.20;;;19.20;;
830;SDS011;397;50.564;7.272;2023-04-07T08:16:21;29.53;;;21.00;;
830;SDS011;397;50.564;7.272;2023-04-07T08:18:49;24.17;;;19.77;;
830;SDS011;397;50.564;7.272;2023-04-07T08:21:16;26.40;;;19.10;;
830;SDS011;397;50.564;7.272;2023-04-07T08:23:45;25.03;;;20.63;;
830;SDS011;397;50.564;7.272;2023-04-07T08:26:14;23.97;;;19.47;;
830;SDS011;397;50.564;7.272;2023-04-07T08:28:42;26.40;;;20.40;;
830;SDS011;397;50.564;7.272;2023-04-07T08:31:09;26.67;;;20.90;;
830;SDS011;397;50.564;7.272;2023-04-07T08:33:37;24.80;;;17.67;;
830;SDS011;397;50.564;7.272;2023-04-07T08:36:05;18.90;;;16.37;;
830;SDS011;397;50.564;7.272;2023-04-07T08:38:32;22.77;;;17.30;;
830;SDS011;397;50.564;7.272;2023-04-07T08:41:02;19.47;;;16.40;;
830;SDS011;397;50.564;7.272;2023-04-07T08:43:31;21.70;;;17.60;;
830;SDS011;397;50.564;7.272;2023-04-07T08:46:02;21.60;;;17.50;;
830;SDS011;397;50.564;7.272;2023-04-07T08:48:30;21.87;;;16.10;;
830;SDS011;397;50.564;7.272;2023-04-07T08:51:03;22.97;;;17.27;;
830;SDS011;397;50.564;7.272;2023-04-07T08:53:39;18.33;;;16.33;;
830;SDS011;397;50.564;7.272;2023-04-07T08:56:03;22.13;;;17.30;;
830;SDS011;397;50.564;7.272;2023-04-07T08:58:32;23.13;;;13.27;;
830;SDS011;397;50.564;7.272;2023-04-07T09:01:02;17.77;;;12.63;;
830;SDS011;397;50.564;7.272;2023-04-07T09:03:32;18.73;;;13.33;;
830;SDS011;397;50.564;7.272;2023-04-07T09:06:00;13.03;;;10.00;;
830;SDS011;397;50.564;7.272;2023-04-07T09:08:28;13.80;;;10.17;;
830;SDS011;397;50.564;7.272;2023-04-07T09:10:56;13.50;;;10.13;;
830;SDS011;397;50.564;7.272;2023-04-07T09:13:23;14.10;;;10.80;;
830;SDS011;397;50.564;7.272;2023-04-07T09:15:51;12.40;;;9.00;;
830;SDS011;397;50.564;7.272;2023-04-07T09:18:19;13.10;;;8.17;;
830;SDS011;397;50.564;7.272;2023-04-07T09:20:57;11.63;;;7.93;;
830;SDS011;397;50.564;7.272;2023-04-07T09:23:26;11.63;;;8.03;;
830;SDS011;397;50.564;7.272;2023-04-07T09:25:56;13.60;;;8.03;;
830;SDS011;397;50.564;7.272;2023-04-07T09:28:25;14.27;;;7.80;;
830;SDS011;397;50.564;7.272;2023-04-07T09:30:54;9.40;;;7.33;;
830;SDS011;397;50.564;7.272;2023-04-07T09:33:28;18.80;;;8.90;;
830;SDS011;397;50.564;7.272;2023-04-07T09:35:56;17.00;;;10.53;;
830;SDS011;397;50.564;7.272;2023-04-07T09:38:26;16.60;;;8.90;;
830;SDS011;397;50.564;7.272;2023-04-07T09:41:17;15.37;;;10.07;;
830;SDS011;397;50.564;7.272;2023-04-07T09:43:43;12.60;;;9.10;;
830;SDS011;397;50.564;7.272;2023-04-07T09:46:12;14.53;;;8.57;;
830;SDS011;397;50.564;7.272;2023-04-07T09:48:41;11.93;;;8.73;;
830;SDS011;397;50.564;7.272;2023-04-07T09:51:14;13.03;;;8.97;;
830;SDS011;397;50.564;7.272;2023-04-07T09:53:43;14.23;;;9.10;;
830;SDS011;397;50.564;7.272;2023-04-07T09:56:16;13.40;;;8.87;;
830;SDS011;397;50.564;7.272;2023-04-07T09:58:47;13.97;;;8.20;;
830;SDS011;397;50.564;7.272;2023-04-07T10:01:16;11.57;;;7.77;;
830;SDS011;397;50.564;7.272;2023-04-07T10:03:45;11.00;;;7.13;;
830;SDS011;397;50.564;7.272;2023-04-07T10:06:15;10.70;;;8.00;;
830;SDS011;397;50.564;7.272;2023-04-07T10:08:43;12.17;;;8.00;;
830;SDS011;397;50.564;7.272;2023-04-07T10:11:10;13.27;;;8.20;;
830;SDS011;397;50.564;7.272;2023-04-07T10:13:38;11.73;;;6.50;;
830;SDS011;397;50.564;7.272;2023-04-07T10:16:07;11.83;;;8.00;;
830;SDS011;397;50.564;7.272;2023-04-07T10:18:35;11.90;;;8.13;;
830;SDS011;397;50.564;7.272;2023-04-07T10:21:05;13.63;;;7.87;;
830;SDS011;397;50.564;7.272;2023-04-07T10:23:39;10.80;;;8.57;;
830;SDS011;397;50.564;7.272;2023-04-07T10:26:07;9.60;;;7.73;;
830;SDS011;397;50.564;7.272;2023-04-07T10:28:36;9.43;;;6.90;;
830;SDS011;397;50.564;7.272;2023-04-07T10:31:06;10.50;;;7.50;;
830;SDS011;397;50.564;7.272;2023-04-07T10:33:55;11.27;;;6.43;;
830;SDS011;397;50.564;7.272;2023-04-07T10:36:14;10.10;;;8.33;;
830;SDS011;397;50.564;7.272;2023-04-07T10:39:01;11.93;;;7.33;;
830;SDS011;397;50.564;7.272;2023-04-07T10:41:30;10.50;;;7.20;;
830;SDS011;397;50.564;7.272;2023-04-07T10:44:00;11.80;;;7.53;;
830;SDS011;397;50.564;7.272;2023-04-07T10:49:14;10.37;;;8.00;;
830;SDS011;397;50.564;7.272;2023-04-07T10:51:42;10.03;;;7.60;;
830;SDS011;397;50.564;7.272;2023-04-07T10:54:16;13.83;;;8.23;;
830;SDS011;397;50.564;7.272;2023-04-07T10:59:39;17.77;;;10.33;;
830;SDS011;397;50.564;7.272;2023-04-07T11:04:44;12.70;;;8.53;;
830;SDS011;397;50.564;7.272;2023-04-07T11:07:13;17.87;;;10.67;;
830;SDS011;397;50.564;7.272;2023-04-07T11:09:42;13.30;;;9.50;;
830;SDS011;397;50.564;7.272;2023-04-07T11:12:22;13.03;;;10.30;;
830;SDS011;397;50.564;7.272;2023-04-07T11:14:51;16.60;;;8.90;;
830;SDS011;397;50.564;7.272;2023-04-07T11:17:18;19.87;;;11.50;;
830;SDS011;397;50.564;7.272;2023-04-07T11:19:50;14.10;;;9.30;;
830;SDS011;397;50.564;7.272;2023-04-07T11:22:18;17.33;;;11.63;;
830;SDS011;397;50.564;7.272;2023-04-07T11:24:45;14.67;;;9.90;;
830;SDS011;397;50.564;7.272;2023-04-07T11:27:13;13.60;;;9.47;;
830;SDS011;397;50.564;7.272;2023-04-07T11:29:41;18.73;;;10.40;;
830;SDS011;397;50.564;7.272;2023-04-07T11:32:08;12.87;;;8.47;;
830;SDS011;397;50.564;7.272;2023-04-07T11:34:37;15.13;;;9.30;;
830;SDS011;397;50.564;7.272;2023-04-07T11:37:22;16.00;;;10.33;;
830;SDS011;397;50.564;7.272;2023-04-07T11:39:57;15.53;;;9.67;;
830;SDS011;397;50.564;7.272;2023-04-07T11:42:37;15.00;;;9.10;;
830;SDS011;397;50.564;7.272;2023-04-07T11:45:15;12.43;;;9.40;;
830;SDS011;397;50.564;7.272;2023-04-07T11:47:45;12.97;;;9.47;;
830;SDS011;397;50.564;7.272;2023-04-07T11:50:14;13.43;;;9.30;;
830;SDS011;397;50.564;7.272;2023-04-07T11:52:45;10.20;;;8.10;;
830;SDS011;397;50.564;7.272;2023-04-07T11:55:17;12.90;;;9.47;;
830;SDS011;397;50.564;7.272;2023-04-07T11:57:47;11.47;;;10.00;;
830;SDS011;397;50.564;7.272;2023-04-07T12:00:16;10.07;;;8.90;;
830;SDS011;397;50.564;7.272;2023-04-07T12:02:45;9.20;;;8.13;;
830;SDS011;397;50.564;7.272;2023-04-07T12:05:12;11.90;;;9.35;;
830;SDS011;397;50.564;7.272;2023-04-07T12:07:51;15.80;;;9.50;;
830;SDS011;397;50.564;7.272;2023-04-07T12:10:21;10.50;;;9.10;;
830;SDS011;397;50.564;7.272;2023-04-07T12:12:52;9.93;;;8.33;;
830;SDS011;397;50.564;7.272;2023-04-07T12:15:20;14.00;;;10.30;;
830;SDS011;397;50.564;7.272;2023-04-07T12:17:47;11.47;;;9.50;;
830;SDS011;397;50.564;7.272;2023-04-07T12:20:15;11.10;;;10.00;;
830;SDS011;397;50.564;7.272;2023-04-07T12:22:43;12.97;;;10.47;;
830;SDS011;397;50.564;7.272;2023-04-07T12:25:11;15.60;;;9.40;;
830;SDS011;397;50.564;7.272;2023-04-07T12:27:38;14.93;;;10.43;;
830;SDS011;397;50.564;7.272;2023-04-07T12:30:06;13.20;;;10.10;;
830;SDS011;397;50.564;7.272;2023-04-07T12:32:34;12.53;;;11.07;;
830;SDS011;397;50.564;7.272;2023-04-07T12:35:02;14.50;;;11.50;;
830;SDS011;397;50.564;7.272;2023-04-07T12:37:30;12.83;;;11.50;;
830;SDS011;397;50.564;7.272;2023-04-07T12:39:58;15.30;;;11.90;;
830;SDS011;397;50.564;7.272;2023-04-07T12:42:25;13.50;;;12.10;;
830;SDS011;397;50.564;7.272;2023-04-07T12:44:53;13.67;;;10.97;;
830;SDS011;397;50.564;7.272;2023-04-07T12:47:21;13.23;;;11.27;;
830;SDS011;397;50.564;7.272;2023-04-07T12:49:48;12.10;;;10.60;;
830;SDS011;397;50.564;7.272;2023-04-07T12:52:16;12.40;;;10.10;;
830;SDS011;397;50.564;7.272;2023-04-07T12:54:43;13.10;;;9.67;;
830;SDS011;397;50.564;7.272;2023-04-07T12:57:11;12.70;;;9.87;;
830;SDS011;397;50.564;7.272;2023-04-07T12:59:38;10.47;;;9.47;;
830;SDS011;397;50.564;7.272;2023-04-07T13:02:06;11.07;;;9.87;;
830;SDS011;397;50.564;7.272;2023-04-07T13:04:36;12.30;;;10.63;;
830;SDS011;397;50.564;7.272;2023-04-07T13:07:05;10.10;;;9.00;;
830;SDS011;397;50.564;7.272;2023-04-07T13:09:34;10.93;;;9.63;;
830;SDS011;397;50.564;7.272;2023-04-07T13:12:01;12.27;;;9.93;;
830;SDS011;397;50.564;7.272;2023-04-07T13:14:29;11.63;;;10.43;;
830;SDS011;397;50.564;7.272;2023-04-07T13:16:56;12.23;;;10.67;;
830;SDS011;397;50.564;7.272;2023-04-07T13:19:24;11.47;;;10.37;;
830;SDS011;397;50.564;7.272;2023-04-07T13:21:51;10.93;;;9.77;;
830;SDS011;397;50.564;7.272;2023-04-07T13:24:19;16.77;;;10.20;;
830;SDS011;397;50.564;7.272;2023-04-07T13:26:46;12.50;;;9.67;;
830;SDS011;397;50.564;7.272;2023-04-07T13:29:14;12.27;;;10.07;;
830;SDS011;397;50.564;7.272;2023-04-07T13:31:45;11.33;;;9.97;;
830;SDS011;397;50.564;7.272;2023-04-07T13:34:13;13.50;;;12.20;;
830;SDS011;397;50.564;7.272;2023-04-07T13:36:41;15.27;;;12.00;;
830;SDS011;397;50.564;7.272;2023-04-07T13:39:09;15.67;;;12.20;;
830;SDS011;397;50.564;7.272;2023-04-07T13:41:37;13.00;;;11.57;;
830;SDS011;397;50.564;7.272;2023-04-07T13:44:05;15.00;;;12.30;;
830;SDS011;397;50.564;7.272;2023-04-07T13:46:32;13.70;;;12.40;;
830;SDS011;397;50.564;7.272;2023-04-07T13:49:00;12.87;;;11.53;;
830;SDS011;397;50.564;7.272;2023-04-07T13:51:28;13.90;;;12.40;;
830;SDS011;397;50.564;7.272;2023-04-07T13:53:55;13.60;;;12.23;;
830;SDS011;397;50.564;7.272;2023-04-07T13:56:23;14.70;;;12.63;;
830;SDS011;397;50.564;7.272;2023-04-07T13:58:50;15.50;;;12.97;;
830;SDS011;397;50.564;7.272;2023-04-07T14:01:18;13.47;;;12.03;;
830;SDS011;397;50.564;7.272;2023-04-07T14:03:46;15.90;;;11.40;;
830;SDS011;397;50.564;7.272;2023-04-07T14:06:14;18.07;;;13.80;;
830;SDS011;397;50.564;7.272;2023-04-07T14:08:41;14.27;;;12.40;;
830;SDS011;397;50.564;7.272;2023-04-07T14:11:09;15.60;;;12.27;;
830;SDS011;397;50.564;7.272;2023-04-07T14:13:36;14.83;;;13.23;;
830;SDS011;397;50.564;7.272;2023-04-07T14:16:04;15.83;;;14.17;;
830;SDS011;397;50.564;7.272;2023-04-07T14:18:32;14.80;;;12.60;;
830;SDS011;397;50.564;7.272;2023-04-07T14:21:00;14.17;;;12.73;;
830;SDS011;397;50.564;7.272;2023-04-07T14:23:28;15.73;;;14.23;;
830;SDS011;397;50.564;7.272;2023-04-07T14:25:57;15.00;;;13.40;;
830;SDS011;397;50.564;7.272;2023-04-07T14:28:25;14.37;;;12.40;;
830;SDS011;397;50.564;7.272;2023-04-07T14:30:54;14.90;;;13.40;;
830;SDS011;397;50.564;7.272;2023-04-07T14:33:21;16.57;;;13.77;;
830;SDS011;397;50.564;7.272;2023-04-07T14:35:49;15.43;;;12.83;;
830;SDS011;397;50.564;7.272;2023-04-07T14:38:17;13.50;;;12.20;;
830;SDS011;397;50.564;7.272;2023-04-07T14:40:46;13.83;;;12.40;;
830;SDS011;397;50.564;7.272;2023-04-07T14:43:14;13.40;;;12.10;;
830;SDS011;397;50.564;7.272;2023-04-07T14:45:42;12.73;;;11.07;;
830;SDS011;397;50.564;7.272;2023-04-07T14:48:10;13.90;;;11.73;;
830;SDS011;397;50.564;7.272;2023-04-07T14:50:38;14.23;;;10.87;;
830;SDS011;397;50.564;7.272;2023-04-07T14:53:06;11.90;;;10.70;;
830;SDS011;397;50.564;7.272;2023-04-07T14:55:33;12.63;;;10.30;;
830;SDS011;397;50.564;7.272;2023-04-07T14:58:01;11.17;;;9.93;;
830;SDS011;397;50.564;7.272;2023-04-07T15:00:29;12.20;;;10.67;;
830;SDS011;397;50.564;7.272;2023-04-07T15:02:56;12.10;;;10.50;;
830;SDS011;397;50.564;7.272;2023-04-07T15:05:24;12.87;;;11.57;;
830;SDS011;397;50.564;7.272;2023-04-07T15:07:53;13.20;;;11.63;;
830;SDS011;397;50.564;7.272;2023-04-07T15:10:21;14.87;;;13.00;;
830;SDS011;397;50.564;7.272;2023-04-07T15:12:49;15.70;;;12.63;;
830;SDS011;397;50.564;7.272;2023-04-07T15:15:16;15.50;;;14.00;;
830;SDS011;397;50.564;7.272;2023-04-07T15:17:44;15.03;;;13.63;;
830;SDS011;397;50.564;7.272;2023-04-07T15:20:11;17.27;;;15.57;;
830;SDS011;397;50.564;7.272;2023-04-07T15:22:39;15.00;;;13.47;;
830;SDS011;397;50.564;7.272;2023-04-07T15:25:06;17.83;;;14.60;;
830;SDS011;397;50.564;7.272;2023-04-07T15:27:34;16.27;;;14.43;;
830;SDS011;397;50.564;7.272;2023-04-07T15:30:02;16.80;;;13.90;;
830;SDS011;397;50.564;7.272;2023-04-07T15:32:30;16.80;;;14.13;;
830;SDS011;397;50.564;7.272;2023-04-07T15:34:57;17.60;;;15.80;;
830;SDS011;397;50.564;7.272;2023-04-07T15:37:25;15.43;;;13.83;;
830;SDS011;397;50.564;7.272;2023-04-07T15:39:53;16.60;;;14.90;;